sensor_id;sensor_type;location;lat;lon;timestamp;P1;durP1;ratioP1;P2;durP2;ratioP2
63943;SDS011;50121;51.218;7.664;2022-10-22T00:02:22;13.55;;;7.95;;
63943;SDS011;50121;51.218;7.664;2022-10-22T00:04:49;9.77;;;7.60;;
63943;SDS011;50121;51.218;7.664;2022-10-22T00:07:17;9.63;;;7.70;;
63943;SDS011;50121;51.218;7.664;2022-10-22T00:09:45;9.88;;;7.70;;
63943;SDS011;50121;51.218;7.664;2022-10-22T00:12:13;8.45;;;7.57;;
63943;SDS011;50121;51.218;7.664;2022-10-22T00:14:41;10.35;;;8.10;;
63943;SDS011;50121;51.218;7.664;2022-10-22T00:17:09;13.18;;;7.60;;
63943;SDS011;50121;51.218;7.664;2022-10-22T00:19:37;11.05;;;7.60;;
63943;SDS011;50121;51.218;7.664;2022-10-22T00:22:04;9.45;;;7.10;;
63943;SDS011;50121;51.218;7.664;2022-10-22T00:24:32;10.82;;;7.43;;
63943;SDS011;50121;51.218;7.664;2022-10-22T00:27:00;8.82;;;7.93;;
63943;SDS011;50121;51.218;7.664;2022-10-22T00:29:28;8.65;;;7.30;;
63943;SDS011;50121;51.218;7.664;2022-10-22T00:31:55;9.27;;;7.57;;
63943;SDS011;50121;51.218;7.664;2022-10-22T00:34:23;12.00;;;7.47;;
63943;SDS011;50121;51.218;7.664;2022-10-22T00:36:50;9.35;;;7.57;;
63943;SDS011;50121;51.218;7.664;2022-10-22T00:39:19;9.43;;;7.60;;
63943;SDS011;50121;51.218;7.664;2022-10-22T00:41:47;7.88;;;7.18;;
63943;SDS011;50121;51.218;7.664;2022-10-22T00:47:01;9.55;;;6.97;;
63943;SDS011;50121;51.218;7.664;2022-10-22T00:49:32;8.93;;;7.18;;
63943;SDS011;50121;51.218;7.664;2022-10-22T00:51:59;7.70;;;7.10;;
63943;SDS011;50121;51.218;7.664;2022-10-22T00:54:27;8.77;;;7.60;;
63943;SDS011;50121;51.218;7.664;2022-10-22T00:56:54;10.18;;;8.15;;
63943;SDS011;50121;51.218;7.664;2022-10-22T00:59:22;11.50;;;7.93;;
63943;SDS011;50121;51.218;7.664;2022-10-22T01:01:49;8.40;;;7.70;;
63943;SDS011;50121;51.218;7.664;2022-10-22T01:04:18;7.13;;;6.53;;
63943;SDS011;50121;51.218;7.664;2022-10-22T01:06:46;15.30;;;7.75;;
63943;SDS011;50121;51.218;7.664;2022-10-22T01:12:02;7.70;;;7.00;;
63943;SDS011;50121;51.218;7.664;2022-10-22T01:14:51;8.35;;;7.50;;
63943;SDS011;50121;51.218;7.664;2022-10-22T01:17:28;10.52;;;7.05;;
63943;SDS011;50121;51.218;7.664;2022-10-22T01:22:42;9.25;;;7.18;;
63943;SDS011;50121;51.218;7.664;2022-10-22T01:27:56;10.93;;;7.43;;
63943;SDS011;50121;51.218;7.664;2022-10-22T01:30:28;12.43;;;8.00;;
63943;SDS011;50121;51.218;7.664;2022-10-22T01:32:57;13.30;;;8.48;;
63943;SDS011;50121;51.218;7.664;2022-10-22T01:35:36;8.70;;;7.80;;
63943;SDS011;50121;51.218;7.664;2022-10-22T01:38:06;11.32;;;7.97;;
63943;SDS011;50121;51.218;7.664;2022-10-22T01:40:35;8.95;;;8.07;;
63943;SDS011;50121;51.218;7.664;2022-10-22T01:43:05;10.52;;;7.57;;
63943;SDS011;50121;51.218;7.664;2022-10-22T01:45:37;8.20;;;7.22;;
63943;SDS011;50121;51.218;7.664;2022-10-22T01:48:28;11.10;;;8.05;;
63943;SDS011;50121;51.218;7.664;2022-10-22T01:58:34;9.43;;;7.28;;
63943;SDS011;50121;51.218;7.664;2022-10-22T02:01:12;13.27;;;10.45;;
63943;SDS011;50121;51.218;7.664;2022-10-22T02:03:45;17.77;;;12.02;;
63943;SDS011;50121;51.218;7.664;2022-10-22T02:08:41;12.43;;;9.07;;
63943;SDS011;50121;51.218;7.664;2022-10-22T02:11:10;11.90;;;7.68;;
63943;SDS011;50121;51.218;7.664;2022-10-22T02:13:40;8.60;;;7.70;;
63943;SDS011;50121;51.218;7.664;2022-10-22T02:16:09;8.70;;;7.20;;
63943;SDS011;50121;51.218;7.664;2022-10-22T02:18:42;10.27;;;7.60;;
63943;SDS011;50121;51.218;7.664;2022-10-22T02:21:11;13.85;;;7.45;;
63943;SDS011;50121;51.218;7.664;2022-10-22T02:23:38;9.57;;;7.38;;
63943;SDS011;50121;51.218;7.664;2022-10-22T02:26:09;9.25;;;6.60;;
63943;SDS011;50121;51.218;7.664;2022-10-22T02:28:44;7.57;;;6.87;;
63943;SDS011;50121;51.218;7.664;2022-10-22T02:31:20;9.07;;;7.80;;
63943;SDS011;50121;51.218;7.664;2022-10-22T02:33:50;10.40;;;8.60;;
63943;SDS011;50121;51.218;7.664;2022-10-22T02:36:19;8.35;;;7.65;;
63943;SDS011;50121;51.218;7.664;2022-10-22T02:38:47;8.23;;;7.53;;
63943;SDS011;50121;51.218;7.664;2022-10-22T02:41:16;10.10;;;7.65;;
63943;SDS011;50121;51.218;7.664;2022-10-22T02:43:47;9.40;;;7.43;;
63943;SDS011;50121;51.218;7.664;2022-10-22T02:46:15;8.82;;;7.63;;
63943;SDS011;50121;51.218;7.664;2022-10-22T02:48:42;9.93;;;8.02;;
63943;SDS011;50121;51.218;7.664;2022-10-22T02:51:10;8.45;;;7.68;;
63943;SDS011;50121;51.218;7.664;2022-10-22T02:53:37;11.60;;;7.90;;
63943;SDS011;50121;51.218;7.664;2022-10-22T02:56:05;10.75;;;8.20;;
63943;SDS011;50121;51.218;7.664;2022-10-22T02:58:32;9.18;;;8.30;;
63943;SDS011;50121;51.218;7.664;2022-10-22T03:01:00;9.13;;;8.13;;
63943;SDS011;50121;51.218;7.664;2022-10-22T03:03:27;9.77;;;8.50;;
63943;SDS011;50121;51.218;7.664;2022-10-22T03:05:55;9.73;;;8.88;;
63943;SDS011;50121;51.218;7.664;2022-10-22T03:08:22;10.18;;;8.57;;
63943;SDS011;50121;51.218;7.664;2022-10-22T03:10:50;9.98;;;8.93;;
63943;SDS011;50121;51.218;7.664;2022-10-22T03:13:17;10.55;;;9.45;;
63943;SDS011;50121;51.218;7.664;2022-10-22T03:15:47;10.73;;;9.10;;
63943;SDS011;50121;51.218;7.664;2022-10-22T03:18:15;9.40;;;8.50;;
63943;SDS011;50121;51.218;7.664;2022-10-22T03:20:42;11.23;;;10.13;;
63943;SDS011;50121;51.218;7.664;2022-10-22T03:23:10;15.27;;;11.10;;
63943;SDS011;50121;51.218;7.664;2022-10-22T03:25:38;11.45;;;10.27;;
63943;SDS011;50121;51.218;7.664;2022-10-22T03:28:07;19.70;;;10.93;;
63943;SDS011;50121;51.218;7.664;2022-10-22T03:30:35;12.50;;;11.25;;
63943;SDS011;50121;51.218;7.664;2022-10-22T03:33:03;13.82;;;11.85;;
63943;SDS011;50121;51.218;7.664;2022-10-22T03:35:30;13.77;;;11.40;;
63943;SDS011;50121;51.218;7.664;2022-10-22T03:37:59;15.60;;;10.80;;
63943;SDS011;50121;51.218;7.664;2022-10-22T03:40:27;14.90;;;11.25;;
63943;SDS011;50121;51.218;7.664;2022-10-22T03:42:55;14.52;;;11.50;;
63943;SDS011;50121;51.218;7.664;2022-10-22T03:45:23;13.75;;;11.57;;
63943;SDS011;50121;51.218;7.664;2022-10-22T03:47:50;15.27;;;11.30;;
63943;SDS011;50121;51.218;7.664;2022-10-22T03:50:18;13.07;;;11.65;;
63943;SDS011;50121;51.218;7.664;2022-10-22T03:52:45;15.57;;;10.70;;
63943;SDS011;50121;51.218;7.664;2022-10-22T03:55:13;15.80;;;11.77;;
63943;SDS011;50121;51.218;7.664;2022-10-22T03:57:40;16.95;;;12.07;;
63943;SDS011;50121;51.218;7.664;2022-10-22T04:00:08;19.40;;;11.77;;
63943;SDS011;50121;51.218;7.664;2022-10-22T04:02:36;18.65;;;11.88;;
63943;SDS011;50121;51.218;7.664;2022-10-22T04:05:04;12.98;;;11.68;;
63943;SDS011;50121;51.218;7.664;2022-10-22T04:07:32;13.93;;;11.95;;
63943;SDS011;50121;51.218;7.664;2022-10-22T04:09:59;14.48;;;11.35;;
63943;SDS011;50121;51.218;7.664;2022-10-22T04:12:27;15.32;;;11.25;;
63943;SDS011;50121;51.218;7.664;2022-10-22T04:14:54;13.30;;;11.90;;
63943;SDS011;50121;51.218;7.664;2022-10-22T04:17:22;13.70;;;11.48;;
63943;SDS011;50121;51.218;7.664;2022-10-22T04:19:49;14.35;;;11.43;;
63943;SDS011;50121;51.218;7.664;2022-10-22T04:22:17;19.83;;;12.10;;
63943;SDS011;50121;51.218;7.664;2022-10-22T04:24:44;15.60;;;12.85;;
63943;SDS011;50121;51.218;7.664;2022-10-22T04:27:12;18.05;;;12.45;;
63943;SDS011;50121;51.218;7.664;2022-10-22T04:29:39;14.15;;;12.30;;
63943;SDS011;50121;51.218;7.664;2022-10-22T04:32:07;17.17;;;12.32;;
63943;SDS011;50121;51.218;7.664;2022-10-22T04:34:34;18.33;;;12.77;;
63943;SDS011;50121;51.218;7.664;2022-10-22T04:37:02;16.27;;;11.95;;
63943;SDS011;50121;51.218;7.664;2022-10-22T04:39:30;15.40;;;11.88;;
63943;SDS011;50121;51.218;7.664;2022-10-22T04:41:57;14.35;;;11.98;;
63943;SDS011;50121;51.218;7.664;2022-10-22T04:44:25;14.68;;;12.02;;
63943;SDS011;50121;51.218;7.664;2022-10-22T04:46:52;13.80;;;11.95;;
63943;SDS011;50121;51.218;7.664;2022-10-22T04:49:20;16.15;;;11.98;;
63943;SDS011;50121;51.218;7.664;2022-10-22T04:51:47;14.80;;;11.68;;
63943;SDS011;50121;51.218;7.664;2022-10-22T04:54:15;14.10;;;12.13;;
63943;SDS011;50121;51.218;7.664;2022-10-22T04:56:42;14.13;;;11.32;;
63943;SDS011;50121;51.218;7.664;2022-10-22T04:59:10;15.90;;;12.10;;
63943;SDS011;50121;51.218;7.664;2022-10-22T05:01:41;17.60;;;12.13;;
63943;SDS011;50121;51.218;7.664;2022-10-22T05:04:10;16.67;;;11.73;;
63943;SDS011;50121;51.218;7.664;2022-10-22T05:06:38;15.40;;;12.23;;
63943;SDS011;50121;51.218;7.664;2022-10-22T05:09:06;17.75;;;11.18;;
63943;SDS011;50121;51.218;7.664;2022-10-22T05:11:35;14.27;;;11.77;;
63943;SDS011;50121;51.218;7.664;2022-10-22T05:14:04;15.38;;;11.57;;
63943;SDS011;50121;51.218;7.664;2022-10-22T05:16:33;15.07;;;11.25;;
63943;SDS011;50121;51.218;7.664;2022-10-22T05:19:01;14.60;;;11.38;;
63943;SDS011;50121;51.218;7.664;2022-10-22T05:21:29;14.73;;;11.40;;
63943;SDS011;50121;51.218;7.664;2022-10-22T05:23:56;13.77;;;11.02;;
63943;SDS011;50121;51.218;7.664;2022-10-22T05:26:27;13.27;;;11.52;;
63943;SDS011;50121;51.218;7.664;2022-10-22T05:28:55;17.42;;;11.82;;
63943;SDS011;50121;51.218;7.664;2022-10-22T05:31:23;14.00;;;11.88;;
63943;SDS011;50121;51.218;7.664;2022-10-22T05:33:50;17.13;;;11.10;;
63943;SDS011;50121;51.218;7.664;2022-10-22T05:36:18;15.52;;;10.95;;
63943;SDS011;50121;51.218;7.664;2022-10-22T05:38:46;12.48;;;11.07;;
63943;SDS011;50121;51.218;7.664;2022-10-22T05:41:18;13.73;;;11.13;;
63943;SDS011;50121;51.218;7.664;2022-10-22T05:43:46;13.35;;;11.63;;
63943;SDS011;50121;51.218;7.664;2022-10-22T05:46:15;12.90;;;10.98;;
63943;SDS011;50121;51.218;7.664;2022-10-22T05:48:52;14.52;;;11.35;;
63943;SDS011;50121;51.218;7.664;2022-10-22T05:51:20;13.35;;;10.50;;
63943;SDS011;50121;51.218;7.664;2022-10-22T05:53:50;15.52;;;10.65;;
63943;SDS011;50121;51.218;7.664;2022-10-22T05:56:18;13.15;;;9.70;;
63943;SDS011;50121;51.218;7.664;2022-10-22T05:58:47;11.60;;;10.40;;
63943;SDS011;50121;51.218;7.664;2022-10-22T06:03:42;11.88;;;10.43;;
63943;SDS011;50121;51.218;7.664;2022-10-22T06:06:20;12.52;;;10.70;;
63943;SDS011;50121;51.218;7.664;2022-10-22T06:08:49;12.30;;;10.70;;
63943;SDS011;50121;51.218;7.664;2022-10-22T06:11:18;17.23;;;11.00;;
63943;SDS011;50121;51.218;7.664;2022-10-22T06:13:45;15.75;;;10.48;;
63943;SDS011;50121;51.218;7.664;2022-10-22T06:16:13;11.75;;;10.50;;
63943;SDS011;50121;51.218;7.664;2022-10-22T06:18:41;13.95;;;10.50;;
63943;SDS011;50121;51.218;7.664;2022-10-22T06:21:09;12.23;;;10.80;;
63943;SDS011;50121;51.218;7.664;2022-10-22T06:23:37;11.13;;;9.95;;
63943;SDS011;50121;51.218;7.664;2022-10-22T06:26:06;18.52;;;10.38;;
63943;SDS011;50121;51.218;7.664;2022-10-22T06:28:34;14.30;;;10.70;;
63943;SDS011;50121;51.218;7.664;2022-10-22T06:31:02;11.48;;;10.32;;
63943;SDS011;50121;51.218;7.664;2022-10-22T06:33:30;11.68;;;10.48;;
63943;SDS011;50121;51.218;7.664;2022-10-22T06:36:06;12.80;;;10.10;;
63943;SDS011;50121;51.218;7.664;2022-10-22T06:38:33;10.65;;;9.68;;
63943;SDS011;50121;51.218;7.664;2022-10-22T06:41:02;12.77;;;11.00;;
63943;SDS011;50121;51.218;7.664;2022-10-22T06:43:30;12.35;;;11.07;;
63943;SDS011;50121;51.218;7.664;2022-10-22T06:45:58;11.40;;;10.35;;
63943;SDS011;50121;51.218;7.664;2022-10-22T06:48:26;12.68;;;11.13;;
63943;SDS011;50121;51.218;7.664;2022-10-22T06:50:54;11.27;;;10.18;;
63943;SDS011;50121;51.218;7.664;2022-10-22T06:53:21;12.85;;;10.30;;
63943;SDS011;50121;51.218;7.664;2022-10-22T06:55:49;14.50;;;11.30;;
63943;SDS011;50121;51.218;7.664;2022-10-22T06:58:16;12.85;;;10.85;;
63943;SDS011;50121;51.218;7.664;2022-10-22T07:00:44;12.80;;;10.38;;
63943;SDS011;50121;51.218;7.664;2022-10-22T07:03:12;12.25;;;10.90;;
63943;SDS011;50121;51.218;7.664;2022-10-22T07:05:40;12.32;;;10.30;;
63943;SDS011;50121;51.218;7.664;2022-10-22T07:08:08;14.18;;;9.95;;
63943;SDS011;50121;51.218;7.664;2022-10-22T07:10:35;11.45;;;10.20;;
63943;SDS011;50121;51.218;7.664;2022-10-22T07:13:03;11.80;;;9.63;;
63943;SDS011;50121;51.218;7.664;2022-10-22T07:15:31;11.93;;;10.27;;
63943;SDS011;50121;51.218;7.664;2022-10-22T07:17:59;15.45;;;10.50;;
63943;SDS011;50121;51.218;7.664;2022-10-22T07:20:26;12.65;;;10.38;;
63943;SDS011;50121;51.218;7.664;2022-10-22T07:22:54;11.55;;;9.85;;
63943;SDS011;50121;51.218;7.664;2022-10-22T07:25:22;13.30;;;9.90;;
63943;SDS011;50121;51.218;7.664;2022-10-22T07:27:49;18.02;;;11.20;;
63943;SDS011;50121;51.218;7.664;2022-10-22T07:30:17;10.80;;;9.70;;
63943;SDS011;50121;51.218;7.664;2022-10-22T07:32:45;11.27;;;9.70;;
63943;SDS011;50121;51.218;7.664;2022-10-22T07:35:13;11.38;;;10.38;;
63943;SDS011;50121;51.218;7.664;2022-10-22T07:37:40;12.35;;;10.82;;
63943;SDS011;50121;51.218;7.664;2022-10-22T07:40:08;11.25;;;9.93;;
63943;SDS011;50121;51.218;7.664;2022-10-22T07:42:36;10.13;;;9.13;;
63943;SDS011;50121;51.218;7.664;2022-10-22T07:45:03;12.30;;;9.40;;
63943;SDS011;50121;51.218;7.664;2022-10-22T07:47:31;12.02;;;8.85;;
63943;SDS011;50121;51.218;7.664;2022-10-22T07:49:58;11.48;;;8.75;;
63943;SDS011;50121;51.218;7.664;2022-10-22T07:52:26;13.88;;;9.25;;
63943;SDS011;50121;51.218;7.664;2022-10-22T07:54:54;9.50;;;8.60;;
63943;SDS011;50121;51.218;7.664;2022-10-22T07:57:21;15.80;;;8.50;;
63943;SDS011;50121;51.218;7.664;2022-10-22T07:59:49;9.82;;;8.48;;
63943;SDS011;50121;51.218;7.664;2022-10-22T08:02:17;13.55;;;9.07;;
63943;SDS011;50121;51.218;7.664;2022-10-22T08:04:44;10.30;;;9.30;;
63943;SDS011;50121;51.218;7.664;2022-10-22T08:07:12;11.55;;;9.35;;
63943;SDS011;50121;51.218;7.664;2022-10-22T08:09:39;9.90;;;8.90;;
63943;SDS011;50121;51.218;7.664;2022-10-22T08:12:07;12.70;;;9.00;;
63943;SDS011;50121;51.218;7.664;2022-10-22T08:14:34;10.27;;;9.20;;
63943;SDS011;50121;51.218;7.664;2022-10-22T08:17:02;13.13;;;9.18;;
63943;SDS011;50121;51.218;7.664;2022-10-22T08:19:29;9.82;;;8.85;;
63943;SDS011;50121;51.218;7.664;2022-10-22T08:21:58;13.57;;;9.48;;
63943;SDS011;50121;51.218;7.664;2022-10-22T08:24:26;15.52;;;9.45;;
63943;SDS011;50121;51.218;7.664;2022-10-22T08:26:54;11.75;;;9.20;;
63943;SDS011;50121;51.218;7.664;2022-10-22T08:29:22;10.23;;;9.10;;
63943;SDS011;50121;51.218;7.664;2022-10-22T08:31:49;10.05;;;8.95;;
63943;SDS011;50121;51.218;7.664;2022-10-22T08:34:17;10.57;;;9.50;;
63943;SDS011;50121;51.218;7.664;2022-10-22T08:36:45;10.52;;;9.50;;
63943;SDS011;50121;51.218;7.664;2022-10-22T08:39:13;9.70;;;8.70;;
63943;SDS011;50121;51.218;7.664;2022-10-22T08:41:45;9.45;;;8.18;;
63943;SDS011;50121;51.218;7.664;2022-10-22T08:49:38;9.18;;;8.30;;
63943;SDS011;50121;51.218;7.664;2022-10-22T08:52:08;17.23;;;8.38;;
63943;SDS011;50121;51.218;7.664;2022-10-22T08:59:45;11.32;;;8.85;;
63943;SDS011;50121;51.218;7.664;2022-10-22T09:07:43;8.80;;;7.88;;
63943;SDS011;50121;51.218;7.664;2022-10-22T09:10:16;10.95;;;8.40;;
63943;SDS011;50121;51.218;7.664;2022-10-22T09:12:44;12.52;;;8.38;;
63943;SDS011;50121;51.218;7.664;2022-10-22T09:15:14;11.98;;;8.70;;
63943;SDS011;50121;51.218;7.664;2022-10-22T09:20:44;11.23;;;8.63;;
63943;SDS011;50121;51.218;7.664;2022-10-22T09:25:55;11.82;;;9.82;;
63943;SDS011;50121;51.218;7.664;2022-10-22T09:28:23;10.00;;;9.02;;
63943;SDS011;50121;51.218;7.664;2022-10-22T09:30:50;13.25;;;8.63;;
63943;SDS011;50121;51.218;7.664;2022-10-22T09:33:26;9.88;;;8.00;;
63943;SDS011;50121;51.218;7.664;2022-10-22T09:35:57;9.70;;;8.40;;
63943;SDS011;50121;51.218;7.664;2022-10-22T09:38:26;12.50;;;10.15;;
63943;SDS011;50121;51.218;7.664;2022-10-22T09:40:54;11.95;;;8.90;;
63943;SDS011;50121;51.218;7.664;2022-10-22T09:43:22;9.35;;;8.25;;
63943;SDS011;50121;51.218;7.664;2022-10-22T09:45:54;8.93;;;8.05;;
63943;SDS011;50121;51.218;7.664;2022-10-22T09:51:34;10.77;;;8.88;;
63943;SDS011;50121;51.218;7.664;2022-10-22T09:54:13;20.73;;;10.23;;
63943;SDS011;50121;51.218;7.664;2022-10-22T09:56:41;9.75;;;8.75;;
63943;SDS011;50121;51.218;7.664;2022-10-22T09:59:16;11.77;;;8.00;;
63943;SDS011;50121;51.218;7.664;2022-10-22T10:01:44;14.35;;;7.88;;
63943;SDS011;50121;51.218;7.664;2022-10-22T10:04:12;9.15;;;8.27;;
63943;SDS011;50121;51.218;7.664;2022-10-22T10:06:41;12.02;;;8.10;;
63943;SDS011;50121;51.218;7.664;2022-10-22T10:14:38;8.52;;;7.72;;
63943;SDS011;50121;51.218;7.664;2022-10-22T10:22:43;9.45;;;8.65;;
63943;SDS011;50121;51.218;7.664;2022-10-22T10:25:34;12.77;;;7.50;;
63943;SDS011;50121;51.218;7.664;2022-10-22T10:33:27;12.77;;;7.15;;
63943;SDS011;50121;51.218;7.664;2022-10-22T10:36:18;8.48;;;7.05;;
63943;SDS011;50121;51.218;7.664;2022-10-22T10:38:55;11.10;;;7.97;;
63943;SDS011;50121;51.218;7.664;2022-10-22T10:47:12;9.75;;;7.88;;
63943;SDS011;50121;51.218;7.664;2022-10-22T10:49:42;8.68;;;7.78;;
63943;SDS011;50121;51.218;7.664;2022-10-22T10:52:29;8.93;;;8.05;;
63943;SDS011;50121;51.218;7.664;2022-10-22T10:55:10;10.90;;;7.13;;
63943;SDS011;50121;51.218;7.664;2022-10-22T10:57:48;7.40;;;6.70;;
63943;SDS011;50121;51.218;7.664;2022-10-22T11:00:18;9.73;;;7.00;;
63943;SDS011;50121;51.218;7.664;2022-10-22T11:03:11;7.55;;;6.85;;
63943;SDS011;50121;51.218;7.664;2022-10-22T11:05:54;7.63;;;7.00;;
63943;SDS011;50121;51.218;7.664;2022-10-22T11:08:33;10.38;;;7.43;;
63943;SDS011;50121;51.218;7.664;2022-10-22T11:18:57;7.72;;;7.03;;
63943;SDS011;50121;51.218;7.664;2022-10-22T11:22:31;7.60;;;6.97;;
63943;SDS011;50121;51.218;7.664;2022-10-22T11:27:32;11.82;;;6.90;;
63943;SDS011;50121;51.218;7.664;2022-10-22T11:30:04;7.07;;;6.47;;
63943;SDS011;50121;51.218;7.664;2022-10-22T11:32:33;9.13;;;6.72;;
63943;SDS011;50121;51.218;7.664;2022-10-22T11:35:04;8.35;;;7.05;;
63943;SDS011;50121;51.218;7.664;2022-10-22T11:37:34;8.13;;;7.05;;
63943;SDS011;50121;51.218;7.664;2022-10-22T11:40:05;10.32;;;8.20;;
63943;SDS011;50121;51.218;7.664;2022-10-22T11:42:35;10.20;;;9.20;;
63943;SDS011;50121;51.218;7.664;2022-10-22T11:45:05;12.05;;;7.82;;
63943;SDS011;50121;51.218;7.664;2022-10-22T11:47:34;8.13;;;7.35;;
63943;SDS011;50121;51.218;7.664;2022-10-22T11:50:21;8.60;;;7.70;;
63943;SDS011;50121;51.218;7.664;2022-10-22T11:53:34;7.10;;;6.47;;
63943;SDS011;50121;51.218;7.664;2022-10-22T11:55:43;8.45;;;7.25;;
63943;SDS011;50121;51.218;7.664;2022-10-22T12:08:44;8.45;;;7.50;;
63943;SDS011;50121;51.218;7.664;2022-10-22T12:11:46;8.63;;;7.75;;
63943;SDS011;50121;51.218;7.664;2022-10-22T12:16:35;8.77;;;7.95;;
63943;SDS011;50121;51.218;7.664;2022-10-22T12:19:24;10.35;;;8.30;;
63943;SDS011;50121;51.218;7.664;2022-10-22T12:24:21;7.47;;;6.88;;
63943;SDS011;50121;51.218;7.664;2022-10-22T12:26:49;8.63;;;7.53;;
63943;SDS011;50121;51.218;7.664;2022-10-22T12:29:19;10.20;;;7.78;;
63943;SDS011;50121;51.218;7.664;2022-10-22T12:31:49;7.95;;;7.10;;
63943;SDS011;50121;51.218;7.664;2022-10-22T12:34:18;8.88;;;7.40;;
63943;SDS011;50121;51.218;7.664;2022-10-22T12:36:48;10.68;;;9.52;;
63943;SDS011;50121;51.218;7.664;2022-10-22T12:39:18;8.50;;;7.70;;
63943;SDS011;50121;51.218;7.664;2022-10-22T12:41:46;7.75;;;6.90;;
63943;SDS011;50121;51.218;7.664;2022-10-22T12:44:16;9.32;;;7.15;;
63943;SDS011;50121;51.218;7.664;2022-10-22T12:46:44;9.13;;;8.18;;
63943;SDS011;50121;51.218;7.664;2022-10-22T12:49:17;9.15;;;7.80;;
63943;SDS011;50121;51.218;7.664;2022-10-22T12:51:46;7.85;;;7.00;;
63943;SDS011;50121;51.218;7.664;2022-10-22T12:54:25;7.85;;;7.15;;
63943;SDS011;50121;51.218;7.664;2022-10-22T12:56:54;8.85;;;6.82;;
63943;SDS011;50121;51.218;7.664;2022-10-22T12:59:31;8.57;;;7.57;;
63943;SDS011;50121;51.218;7.664;2022-10-22T13:02:00;8.05;;;7.00;;
63943;SDS011;50121;51.218;7.664;2022-10-22T13:04:32;7.22;;;6.68;;
63943;SDS011;50121;51.218;7.664;2022-10-22T13:09:42;7.65;;;6.90;;
63943;SDS011;50121;51.218;7.664;2022-10-22T13:12:10;7.85;;;7.00;;
63943;SDS011;50121;51.218;7.664;2022-10-22T13:14:42;7.82;;;7.25;;
63943;SDS011;50121;51.218;7.664;2022-10-22T13:17:18;8.45;;;7.85;;
63943;SDS011;50121;51.218;7.664;2022-10-22T13:22:36;11.27;;;7.10;;
63943;SDS011;50121;51.218;7.664;2022-10-22T13:27:43;11.43;;;9.32;;
63943;SDS011;50121;51.218;7.664;2022-10-22T13:30:33;9.73;;;7.13;;
63943;SDS011;50121;51.218;7.664;2022-10-22T13:33:00;7.85;;;7.07;;
63943;SDS011;50121;51.218;7.664;2022-10-22T13:35:30;7.78;;;7.03;;
63943;SDS011;50121;51.218;7.664;2022-10-22T13:37:59;8.48;;;7.40;;
63943;SDS011;50121;51.218;7.664;2022-10-22T13:40:26;7.57;;;6.88;;
63943;SDS011;50121;51.218;7.664;2022-10-22T13:42:54;7.88;;;7.25;;
63943;SDS011;50121;51.218;7.664;2022-10-22T13:45:21;7.55;;;6.90;;
63943;SDS011;50121;51.218;7.664;2022-10-22T13:47:50;8.77;;;8.15;;
63943;SDS011;50121;51.218;7.664;2022-10-22T13:50:18;8.15;;;7.45;;
63943;SDS011;50121;51.218;7.664;2022-10-22T13:52:54;8.15;;;7.40;;
63943;SDS011;50121;51.218;7.664;2022-10-22T13:55:23;7.95;;;7.18;;
63943;SDS011;50121;51.218;7.664;2022-10-22T13:57:52;8.02;;;7.47;;
63943;SDS011;50121;51.218;7.664;2022-10-22T14:00:21;7.85;;;7.15;;
63943;SDS011;50121;51.218;7.664;2022-10-22T14:02:50;8.85;;;8.10;;
63943;SDS011;50121;51.218;7.664;2022-10-22T14:05:18;8.88;;;8.10;;
63943;SDS011;50121;51.218;7.664;2022-10-22T14:07:46;9.25;;;6.88;;
63943;SDS011;50121;51.218;7.664;2022-10-22T14:10:18;8.75;;;8.05;;
63943;SDS011;50121;51.218;7.664;2022-10-22T14:12:46;8.52;;;7.72;;
63943;SDS011;50121;51.218;7.664;2022-10-22T14:15:15;8.93;;;7.85;;
63943;SDS011;50121;51.218;7.664;2022-10-22T14:17:44;8.07;;;7.32;;
63943;SDS011;50121;51.218;7.664;2022-10-22T14:20:16;11.43;;;8.93;;
63943;SDS011;50121;51.218;7.664;2022-10-22T14:22:45;8.85;;;8.25;;
63943;SDS011;50121;51.218;7.664;2022-10-22T14:25:17;11.10;;;7.80;;
63943;SDS011;50121;51.218;7.664;2022-10-22T14:27:50;8.48;;;7.60;;
63943;SDS011;50121;51.218;7.664;2022-10-22T14:30:19;11.18;;;7.95;;
63943;SDS011;50121;51.218;7.664;2022-10-22T14:32:47;12.00;;;10.77;;
63943;SDS011;50121;51.218;7.664;2022-10-22T14:35:16;11.90;;;9.55;;
63943;SDS011;50121;51.218;7.664;2022-10-22T14:37:44;7.80;;;7.20;;
63943;SDS011;50121;51.218;7.664;2022-10-22T14:40:13;7.82;;;7.05;;
63943;SDS011;50121;51.218;7.664;2022-10-22T14:42:42;7.75;;;6.93;;
63943;SDS011;50121;51.218;7.664;2022-10-22T14:47:40;7.68;;;7.18;;
63943;SDS011;50121;51.218;7.664;2022-10-22T14:50:08;7.75;;;6.90;;
63943;SDS011;50121;51.218;7.664;2022-10-22T14:52:36;8.05;;;7.30;;
63943;SDS011;50121;51.218;7.664;2022-10-22T14:55:04;9.57;;;7.90;;
63943;SDS011;50121;51.218;7.664;2022-10-22T14:57:32;8.75;;;8.00;;
63943;SDS011;50121;51.218;7.664;2022-10-22T14:59:59;7.78;;;7.20;;
63943;SDS011;50121;51.218;7.664;2022-10-22T15:02:27;7.93;;;7.20;;
63943;SDS011;50121;51.218;7.664;2022-10-22T15:04:54;7.93;;;7.43;;
63943;SDS011;50121;51.218;7.664;2022-10-22T15:07:23;7.80;;;7.10;;
63943;SDS011;50121;51.218;7.664;2022-10-22T15:09:50;8.05;;;7.30;;
63943;SDS011;50121;51.218;7.664;2022-10-22T15:12:18;7.60;;;6.90;;
63943;SDS011;50121;51.218;7.664;2022-10-22T15:14:46;8.18;;;7.55;;
63943;SDS011;50121;51.218;7.664;2022-10-22T15:17:14;8.43;;;7.70;;
63943;SDS011;50121;51.218;7.664;2022-10-22T15:19:42;8.68;;;7.85;;
63943;SDS011;50121;51.218;7.664;2022-10-22T15:22:10;14.20;;;12.20;;
63943;SDS011;50121;51.218;7.664;2022-10-22T15:24:38;8.75;;;8.00;;
63943;SDS011;50121;51.218;7.664;2022-10-22T15:27:06;13.40;;;8.95;;
63943;SDS011;50121;51.218;7.664;2022-10-22T15:29:34;8.82;;;7.93;;
63943;SDS011;50121;51.218;7.664;2022-10-22T15:32:02;8.40;;;7.60;;
63943;SDS011;50121;51.218;7.664;2022-10-22T15:34:34;8.27;;;7.60;;
63943;SDS011;50121;51.218;7.664;2022-10-22T15:37:03;9.25;;;8.35;;
63943;SDS011;50121;51.218;7.664;2022-10-22T15:39:31;11.27;;;7.80;;
63943;SDS011;50121;51.218;7.664;2022-10-22T15:41:59;8.57;;;7.82;;
63943;SDS011;50121;51.218;7.664;2022-10-22T15:44:30;8.88;;;8.18;;
63943;SDS011;50121;51.218;7.664;2022-10-22T15:46:58;9.57;;;8.45;;
63943;SDS011;50121;51.218;7.664;2022-10-22T15:49:27;8.38;;;7.45;;
63943;SDS011;50121;51.218;7.664;2022-10-22T15:51:54;11.35;;;8.00;;
63943;SDS011;50121;51.218;7.664;2022-10-22T15:54:24;8.13;;;7.43;;
63943;SDS011;50121;51.218;7.664;2022-10-22T15:56:54;11.00;;;8.98;;
63943;SDS011;50121;51.218;7.664;2022-10-22T15:59:22;8.23;;;7.45;;
63943;SDS011;50121;51.218;7.664;2022-10-22T16:01:49;8.88;;;7.00;;
63943;SDS011;50121;51.218;7.664;2022-10-22T16:04:17;7.07;;;6.47;;
63943;SDS011;50121;51.218;7.664;2022-10-22T16:06:48;7.97;;;7.10;;
63943;SDS011;50121;51.218;7.664;2022-10-22T16:09:19;8.57;;;7.72;;
63943;SDS011;50121;51.218;7.664;2022-10-22T16:11:47;8.88;;;7.80;;
63943;SDS011;50121;51.218;7.664;2022-10-22T16:14:16;14.13;;;8.77;;
63943;SDS011;50121;51.218;7.664;2022-10-22T16:16:47;17.05;;;9.30;;
63943;SDS011;50121;51.218;7.664;2022-10-22T16:19:15;14.88;;;9.32;;
63943;SDS011;50121;51.218;7.664;2022-10-22T16:21:43;12.48;;;9.45;;
63943;SDS011;50121;51.218;7.664;2022-10-22T16:24:11;13.32;;;9.05;;
63943;SDS011;50121;51.218;7.664;2022-10-22T16:26:38;15.05;;;8.50;;
63943;SDS011;50121;51.218;7.664;2022-10-22T16:29:06;9.07;;;8.20;;
63943;SDS011;50121;51.218;7.664;2022-10-22T16:31:36;9.27;;;8.30;;
63943;SDS011;50121;51.218;7.664;2022-10-22T16:34:03;8.30;;;7.50;;
63943;SDS011;50121;51.218;7.664;2022-10-22T16:36:31;13.93;;;7.20;;
63943;SDS011;50121;51.218;7.664;2022-10-22T16:38:58;8.85;;;7.97;;